Terminal Aerodrome Forecast
Issued by NWS

Home | Current Version | Previous Version | Text Only | Print | Product List | Glossary On
Versions: 1 2 3 4 5 6 7 8 9 10 11 12 13 14 15 16 17 18 19 20 21 22 23 24 25 26
000
FTUS41 KCLE 031900 AAB
TAFFDY
TAF AMD
KFDY 031958Z 0320/0418 20013G20KT 3SM -FZRA BR OVC006
      TEMPO 0320/0321 1SM -SN BR OVC006
     FM032130 19013G20KT 2SM -RA BR OVC005 WS020/23040KT
     FM040100 25015G25KT 4SM BR OVC005 WS020/22045KT
     FM040400 28015KT 2SM -SN BKN006 OVC018
     FM041200 29012KT P6SM BKN045=

USA.gov is the U.S. government's official web portal to all federal, state and local government web resources and services.